Time;durP1;ratioP1;P1;durP2;ratioP2;P2;SDS_P1;SDS_P2;PMS_P1;PMS_P2;Temp;Humidity;BMP_temperature;BMP_pressure;BME280_temperature;BME280_humidity;BME280_pressure;Samples;Min_cycle;Max_cycle;Signal;HPM_P1;HPM_P2
2023/05/10 00:00:26;;;;;;;;;;;16.70;85.10;;;;;;4982383;28;19955;-68
2023/05/10 00:02:53;;;;;;;;;;;16.70;85.20;;;;;;4984137;28;20480;-68
2023/05/10 00:05:20;;;;;;;;;;;16.70;85.30;;;;;;4985034;28;19933;-66
2023/05/10 00:07:46;;;;;;;;;;;16.60;85.40;;;;;;4983443;28;19930;-66
2023/05/10 00:10:13;;;;;;;;;;;16.60;85.50;;;;;;4984239;28;19926;-67
2023/05/10 00:12:40;;;;;;;;;;;16.60;85.60;;;;;;4982633;28;19937;-66
2023/05/10 00:15:09;;;;;;;;;;;16.60;85.60;;;;;;4984542;28;20419;-66
2023/05/10 00:17:36;;;;;;;;;;;16.60;85.60;;;;;;4984841;28;19930;-68
2023/05/10 00:20:04;;;;;;;;;;;16.60;85.60;;;;;;4984928;28;19925;-66
2023/05/10 00:22:31;;;;;;;;;;;16.60;85.70;;;;;;4985317;28;19926;-73
2023/05/10 00:24:58;;;;;;;;;;;16.60;85.70;;;;;;4984388;28;19968;-75
2023/05/10 00:27:25;;;;;;;;;;;16.60;85.70;;;;;;4984784;28;20336;-74
2023/05/10 00:29:51;;;;;;;;;;;16.60;85.60;;;;;;4981500;28;20289;-76
2023/05/10 00:32:20;;;;;;;;;;;16.60;85.60;;;;;;4984375;28;19925;-67
2023/05/10 00:34:47;;;;;;;;;;;16.60;85.70;;;;;;4982010;28;19926;-67
2023/05/10 00:37:14;;;;;;;;;;;16.50;85.80;;;;;;4984322;28;19929;-65
2023/05/10 00:39:43;;;;;;;;;;;16.60;85.90;;;;;;4983950;28;19934;-66
2023/05/10 00:42:09;;;;;;;;;;;16.50;85.80;;;;;;4981552;28;19929;-66
2023/05/10 00:44:36;;;;;;;;;;;16.50;85.90;;;;;;4981373;28;20021;-66
2023/05/10 00:47:03;;;;;;;;;;;16.60;86.00;;;;;;4983693;28;19925;-68
2023/05/10 00:49:31;;;;;;;;;;;16.60;85.90;;;;;;4983896;28;20017;-69
2023/05/10 00:51:58;;;;;;;;;;;16.60;86.00;;;;;;4982733;28;20381;-67
2023/05/10 00:54:25;;;;;;;;;;;16.50;86.20;;;;;;4964813;28;20389;-68
2023/05/10 00:56:52;;;;;;;;;;;16.60;86.20;;;;;;4983996;28;19937;-69
2023/05/10 00:59:19;;;;;;;;;;;16.60;85.80;;;;;;4982763;28;19925;-65
2023/05/10 01:01:46;;;;;;;;;;;16.60;85.80;;;;;;4983354;28;19930;-77
2023/05/10 01:04:13;;;;;;;;;;;16.70;85.00;;;;;;4966048;28;19926;-76
2023/05/10 01:06:42;;;;;;;;;;;16.70;83.80;;;;;;4982138;28;20492;-79
2023/05/10 01:09:08;;;;;;;;;;;16.70;83.40;;;;;;4983216;28;19929;-78
2023/05/10 01:11:35;;;;;;;;;;;16.80;82.60;;;;;;4983074;28;19991;-76
2023/05/10 01:14:02;;;;;;;;;;;16.80;82.30;;;;;;4965052;28;19932;-76
2023/05/10 01:16:30;;;;;;;;;;;16.70;81.80;;;;;;4984163;28;20370;-65
2023/05/10 01:18:57;;;;;;;;;;;16.60;82.00;;;;;;4984072;28;20005;-65
2023/05/10 01:21:28;;;;;;;;;;;16.60;82.00;;;;;;4968033;28;20289;-68
2023/05/10 01:24:15;;;;;;;;;;;16.60;82.00;;;;;;4980347;28;19937;-67
2023/05/10 01:27:00;;;;;;;;;;;16.50;81.80;;;;;;4983945;28;20348;-66
2023/05/10 01:29:45;;;;;;;;;;;16.50;81.90;;;;;;4981332;28;19929;-67
2023/05/10 01:32:17;;;;;;;;;;;16.50;81.90;;;;;;4982279;28;20484;-66
2023/05/10 01:34:48;;;;;;;;;;;16.50;81.80;;;;;;4983940;28;20016;-66
2023/05/10 01:37:21;;;;;;;;;;;16.30;82.30;;;;;;4966927;28;19930;-66
2023/05/10 01:39:49;;;;;;;;;;;16.20;82.80;;;;;;4982352;28;19926;-65
2023/05/10 01:42:20;;;;;;;;;;;16.20;82.90;;;;;;4979620;28;19953;-70
2023/05/10 01:44:49;;;;;;;;;;;16.20;82.90;;;;;;4981353;28;19930;-69
2023/05/10 01:47:19;;;;;;;;;;;16.10;83.40;;;;;;4983813;28;20491;-68
2023/05/10 01:49:50;;;;;;;;;;;16.10;83.70;;;;;;4963065;28;20445;-69
2023/05/10 01:52:19;;;;;;;;;;;16.00;83.70;;;;;;4984177;28;19981;-68
2023/05/10 01:54:50;;;;;;;;;;;16.00;83.90;;;;;;4983252;28;19933;-68
2023/05/10 01:57:17;;;;;;;;;;;16.00;83.80;;;;;;4981589;28;19930;-68
2023/05/10 01:59:51;;;;;;;;;;;16.00;84.10;;;;;;4979804;28;19958;-66
2023/05/10 02:02:21;;;;;;;;;;;15.90;84.40;;;;;;4979151;28;20337;-68
2023/05/10 02:04:48;;;;;;;;;;;15.90;84.40;;;;;;4982816;28;19937;-69
2023/05/10 02:07:15;;;;;;;;;;;16.00;84.20;;;;;;4980877;28;19965;-64
2023/05/10 02:09:47;;;;;;;;;;;15.90;84.40;;;;;;4980836;28;19934;-65
2023/05/10 02:12:14;;;;;;;;;;;15.90;84.60;;;;;;4981295;28;20451;-66
2023/05/10 02:14:42;;;;;;;;;;;15.90;84.40;;;;;;4963346;28;19973;-66
2023/05/10 02:17:10;;;;;;;;;;;16.00;84.20;;;;;;4964644;28;19961;-68
2023/05/10 02:19:39;;;;;;;;;;;15.90;84.20;;;;;;4965631;28;19940;-66
2023/05/10 02:22:06;;;;;;;;;;;15.90;84.20;;;;;;4984620;28;20664;-76
2023/05/10 02:24:34;;;;;;;;;;;15.90;84.30;;;;;;4964430;28;19934;-76
2023/05/10 02:27:03;;;;;;;;;;;15.90;84.10;;;;;;4981476;28;20032;-76
2023/05/10 02:29:31;;;;;;;;;;;15.80;84.30;;;;;;4984592;28;20017;-75
2023/05/10 02:31:58;;;;;;;;;;;15.70;84.50;;;;;;4972671;28;20013;-66
2023/05/10 02:34:26;;;;;;;;;;;15.70;84.60;;;;;;4977524;28;19973;-65
2023/05/10 02:36:57;;;;;;;;;;;15.80;84.40;;;;;;4978095;28;19967;-81
2023/05/10 02:39:25;;;;;;;;;;;15.70;84.70;;;;;;4965378;28;19933;-77
2023/05/10 02:41:53;;;;;;;;;;;15.60;84.70;;;;;;4967243;28;21890;-73
2023/05/10 02:44:20;;;;;;;;;;;15.70;84.50;;;;;;4974576;28;19945;-75
2023/05/10 02:46:47;;;;;;;;;;;15.60;84.80;;;;;;4973691;28;19933;-68
2023/05/10 02:49:14;;;;;;;;;;;15.60;84.90;;;;;;4973810;28;19930;-67
2023/05/10 02:51:42;;;;;;;;;;;15.50;85.00;;;;;;4975327;28;19977;-66
2023/05/10 02:54:12;;;;;;;;;;;15.40;85.10;;;;;;4983410;28;19933;-66
2023/05/10 02:56:51;;;;;;;;;;;15.40;85.30;;;;;;4985360;28;20025;-63
2023/05/10 02:59:18;;;;;;;;;;;15.40;85.40;;;;;;4986167;28;20216;-62
2023/05/10 03:01:44;;;;;;;;;;;15.50;85.10;;;;;;4987129;28;19934;-73
2023/05/10 03:04:11;;;;;;;;;;;15.60;84.60;;;;;;4986445;28;20317;-73
2023/05/10 03:06:38;;;;;;;;;;;15.40;85.00;;;;;;4968058;28;19926;-65
2023/05/10 03:09:05;;;;;;;;;;;15.40;85.30;;;;;;4968694;28;19980;-65
2023/05/10 03:11:43;;;;;;;;;;;15.40;85.40;;;;;;4984950;28;19984;-66
2023/05/10 03:14:13;;;;;;;;;;;15.40;85.10;;;;;;4984889;28;20022;-66
2023/05/10 03:16:45;;;;;;;;;;;15.50;84.50;;;;;;4982317;28;19929;-64
2023/05/10 03:19:14;;;;;;;;;;;15.40;85.00;;;;;;4985028;28;19937;-64
2023/05/10 03:21:42;;;;;;;;;;;15.40;85.00;;;;;;4984453;28;20013;-61
2023/05/10 03:24:11;;;;;;;;;;;15.40;85.00;;;;;;4966617;28;19926;-62
2023/05/10 03:26:41;;;;;;;;;;;15.40;84.90;;;;;;4979792;28;20534;-65
2023/05/10 03:29:12;;;;;;;;;;;15.40;84.90;;;;;;4967365;28;19930;-66
2023/05/10 03:31:40;;;;;;;;;;;15.30;85.10;;;;;;4967229;28;19926;-78
2023/05/10 03:34:07;;;;;;;;;;;15.40;84.90;;;;;;4968440;28;20427;-76
2023/05/10 03:36:33;;;;;;;;;;;15.40;84.80;;;;;;4986305;28;19973;-66
2023/05/10 03:39:01;;;;;;;;;;;15.40;84.80;;;;;;4982594;28;19930;-64
2023/05/10 03:41:28;;;;;;;;;;;15.40;84.50;;;;;;4967587;28;19929;-65
2023/05/10 03:43:56;;;;;;;;;;;15.40;84.80;;;;;;4981670;28;19936;-67
2023/05/10 03:46:23;;;;;;;;;;;15.30;84.90;;;;;;4982651;28;19930;-68
2023/05/10 03:48:50;;;;;;;;;;;15.20;85.10;;;;;;4966644;28;20040;-68
2023/05/10 03:51:16;;;;;;;;;;;15.30;84.90;;;;;;4983261;28;19935;-68
2023/05/10 03:53:43;;;;;;;;;;;15.20;85.20;;;;;;4963168;28;19926;-69
2023/05/10 03:56:10;;;;;;;;;;;15.20;85.00;;;;;;4966105;28;19946;-65
2023/05/10 03:58:37;;;;;;;;;;;15.30;84.70;;;;;;4973596;28;20389;-65
2023/05/10 04:01:05;;;;;;;;;;;15.20;84.90;;;;;;4978437;28;19930;-65
2023/05/10 04:03:32;;;;;;;;;;;15.20;85.10;;;;;;4983948;28;19933;-65
2023/05/10 04:06:00;;;;;;;;;;;15.20;85.10;;;;;;4981406;28;20510;-64
2023/05/10 04:08:27;;;;;;;;;;;15.20;85.10;;;;;;4981179;28;19930;-66
2023/05/10 04:10:54;;;;;;;;;;;15.30;84.90;;;;;;4979395;28;19933;-64
2023/05/10 04:13:21;;;;;;;;;;;15.30;84.70;;;;;;4981852;28;19936;-64
2023/05/10 04:15:47;;;;;;;;;;;15.20;84.90;;;;;;4984050;28;19977;-68
2023/05/10 04:18:16;;;;;;;;;;;15.20;85.00;;;;;;4983739;28;20388;-68
2023/05/10 04:20:43;;;;;;;;;;;15.30;84.60;;;;;;4983889;28;20388;-68
2023/05/10 04:23:10;;;;;;;;;;;15.20;84.60;;;;;;4984901;28;19926;-67
2023/05/10 04:25:37;;;;;;;;;;;15.20;84.90;;;;;;4980318;28;19977;-68
2023/05/10 04:28:04;;;;;;;;;;;15.10;85.00;;;;;;4979439;28;19926;-66
2023/05/10 04:30:31;;;;;;;;;;;15.20;84.70;;;;;;4983014;28;20392;-75
2023/05/10 04:32:58;;;;;;;;;;;15.20;85.10;;;;;;4984451;28;19937;-76
2023/05/10 04:35:26;;;;;;;;;;;15.10;85.10;;;;;;4984884;28;19972;-68
2023/05/10 04:37:52;;;;;;;;;;;15.20;84.90;;;;;;4982668;28;19957;-68
2023/05/10 04:40:19;;;;;;;;;;;15.20;84.80;;;;;;4983706;28;19929;-68
2023/05/10 04:42:46;;;;;;;;;;;15.10;85.00;;;;;;4982081;28;19930;-68
2023/05/10 04:45:14;;;;;;;;;;;15.10;85.30;;;;;;4980415;28;20380;-67
2023/05/10 04:47:41;;;;;;;;;;;15.10;85.60;;;;;;4981850;28;19926;-67
2023/05/10 04:50:08;;;;;;;;;;;15.10;85.50;;;;;;4984681;28;19936;-68
2023/05/10 04:52:36;;;;;;;;;;;15.10;85.60;;;;;;4983035;28;19926;-69
2023/05/10 04:55:03;;;;;;;;;;;15.20;85.20;;;;;;4984602;28;19926;-73
2023/05/10 04:57:29;;;;;;;;;;;15.20;85.20;;;;;;4982217;28;19926;-62
2023/05/10 04:59:56;;;;;;;;;;;15.20;85.20;;;;;;4981013;28;19929;-61
2023/05/10 05:02:23;;;;;;;;;;;15.10;85.40;;;;;;4983261;28;19926;-74
2023/05/10 05:04:50;;;;;;;;;;;15.20;85.40;;;;;;4981180;28;19926;-77
2023/05/10 05:07:17;;;;;;;;;;;15.20;85.20;;;;;;4982290;28;19933;-65
2023/05/10 05:09:45;;;;;;;;;;;15.30;84.80;;;;;;4982591;28;19932;-64
2023/05/10 05:12:13;;;;;;;;;;;15.30;84.70;;;;;;4983661;28;19941;-66
2023/05/10 05:14:40;;;;;;;;;;;15.30;85.00;;;;;;4981178;28;19930;-67
2023/05/10 05:17:07;;;;;;;;;;;15.30;84.90;;;;;;4961267;28;19930;-61
2023/05/10 05:19:34;;;;;;;;;;;15.30;85.20;;;;;;4982323;28;19930;-61
2023/05/10 05:22:01;;;;;;;;;;;15.30;85.20;;;;;;4981033;28;19926;-63
2023/05/10 05:24:27;;;;;;;;;;;15.30;85.30;;;;;;4982866;28;20432;-61
2023/05/10 05:26:56;;;;;;;;;;;15.20;85.60;;;;;;4983853;28;19933;-75
2023/05/10 05:29:22;;;;;;;;;;;15.30;85.20;;;;;;4982697;28;19981;-74
2023/05/10 05:31:49;;;;;;;;;;;15.30;85.20;;;;;;4982563;28;19969;-76
2023/05/10 05:34:16;;;;;;;;;;;15.30;85.50;;;;;;4981366;28;19981;-75
2023/05/10 05:36:43;;;;;;;;;;;15.30;85.00;;;;;;4980929;28;19934;-65
2023/05/10 05:39:10;;;;;;;;;;;15.50;84.80;;;;;;4982977;28;19926;-64
2023/05/10 05:41:36;;;;;;;;;;;15.50;85.00;;;;;;4983374;28;20348;-66
2023/05/10 05:44:04;;;;;;;;;;;15.50;84.30;;;;;;4981756;28;20013;-64
2023/05/10 05:46:31;;;;;;;;;;;15.60;84.70;;;;;;4981475;28;20001;-68
2023/05/10 05:48:58;;;;;;;;;;;15.50;84.90;;;;;;4981451;28;19953;-68
2023/05/10 05:51:25;;;;;;;;;;;15.50;85.10;;;;;;4980307;28;19933;-64
2023/05/10 05:53:51;;;;;;;;;;;15.60;84.80;;;;;;4979372;28;19925;-64
2023/05/10 05:56:23;;;;;;;;;;;15.60;84.80;;;;;;4980034;28;19934;-66
2023/05/10 05:58:50;;;;;;;;;;;15.60;84.90;;;;;;4981435;28;19933;-64
2023/05/10 06:01:18;;;;;;;;;;;15.60;85.10;;;;;;4981517;28;20325;-65
2023/05/10 06:03:55;;;;;;;;;;;15.60;84.80;;;;;;4980968;28;20369;-64
2023/05/10 06:06:21;;;;;;;;;;;15.60;84.60;;;;;;4979158;28;19977;-64
2023/05/10 06:08:48;;;;;;;;;;;15.60;84.80;;;;;;4980930;28;19996;-63
2023/05/10 06:11:15;;;;;;;;;;;15.70;84.50;;;;;;4983153;28;19926;-64
2023/05/10 06:13:42;;;;;;;;;;;15.70;84.00;;;;;;4981906;28;19929;-64
2023/05/10 06:16:09;;;;;;;;;;;15.70;84.30;;;;;;4966937;28;19929;-65
2023/05/10 06:18:37;;;;;;;;;;;15.60;84.90;;;;;;4987564;28;19933;-64
2023/05/10 06:21:04;;;;;;;;;;;15.60;85.10;;;;;;4983936;28;19934;-68
2023/05/10 06:23:30;;;;;;;;;;;15.60;85.10;;;;;;4985835;28;20395;-67
2023/05/10 06:25:57;;;;;;;;;;;15.60;85.30;;;;;;4987721;28;19980;-69
2023/05/10 06:28:24;;;;;;;;;;;15.50;85.60;;;;;;4984827;28;19933;-68
2023/05/10 06:30:50;;;;;;;;;;;15.50;85.70;;;;;;4986485;28;20400;-69
2023/05/10 06:33:17;;;;;;;;;;;15.40;85.90;;;;;;4988090;28;19929;-70
2023/05/10 06:35:45;;;;;;;;;;;15.30;86.10;;;;;;4987762;28;19930;-69
2023/05/10 06:38:12;;;;;;;;;;;15.30;86.10;;;;;;4987944;28;19932;-69
2023/05/10 06:40:41;;;;;;;;;;;15.40;85.90;;;;;;4988515;28;19933;-69
2023/05/10 06:43:08;;;;;;;;;;;15.30;86.20;;;;;;4988105;28;19930;-68
2023/05/10 06:45:35;;;;;;;;;;;15.30;86.20;;;;;;4989239;28;19926;-69
2023/05/10 06:48:02;;;;;;;;;;;15.20;86.50;;;;;;4985456;28;19937;-69
2023/05/10 06:50:28;;;;;;;;;;;15.20;86.50;;;;;;4987575;28;19944;-68
2023/05/10 06:52:56;;;;;;;;;;;15.20;86.20;;;;;;4989047;28;20412;-68
2023/05/10 06:55:23;;;;;;;;;;;15.20;86.20;;;;;;4987142;28;19930;-67
2023/05/10 06:57:50;;;;;;;;;;;15.20;86.30;;;;;;4986796;28;19952;-68
2023/05/10 07:00:17;;;;;;;;;;;15.20;86.00;;;;;;4988136;28;19940;-67
2023/05/10 07:02:44;;;;;;;;;;;15.20;86.20;;;;;;4989279;28;20008;-69
2023/05/10 07:05:12;;;;;;;;;;;15.30;86.10;;;;;;4987835;28;19930;-68
2023/05/10 07:07:38;;;;;;;;;;;15.30;86.10;;;;;;4986657;28;19930;-68
2023/05/10 07:10:07;;;;;;;;;;;15.40;86.00;;;;;;4985524;28;19934;-68
2023/05/10 07:12:34;;;;;;;;;;;15.40;86.00;;;;;;4988474;28;19945;-64
2023/05/10 07:15:01;;;;;;;;;;;15.40;86.00;;;;;;4986785;28;19973;-65
2023/05/10 07:17:28;;;;;;;;;;;15.40;86.10;;;;;;4987156;28;19925;-78
2023/05/10 07:19:54;;;;;;;;;;;15.40;85.80;;;;;;4988231;28;19937;-76
2023/05/10 07:22:21;;;;;;;;;;;15.50;85.90;;;;;;4984351;28;19972;-63
2023/05/10 07:24:48;;;;;;;;;;;15.50;86.00;;;;;;4986348;28;19933;-64
2023/05/10 07:27:16;;;;;;;;;;;15.60;85.70;;;;;;4984693;28;19926;-61
2023/05/10 07:29:43;;;;;;;;;;;15.50;85.60;;;;;;4985667;28;19934;-61
2023/05/10 07:32:10;;;;;;;;;;;15.60;85.60;;;;;;4987577;28;20782;-65
2023/05/10 07:34:37;;;;;;;;;;;15.50;85.70;;;;;;4983424;28;20046;-64
2023/05/10 07:37:04;;;;;;;;;;;15.50;85.70;;;;;;4983245;28;19925;-63
2023/05/10 07:39:31;;;;;;;;;;;15.60;85.60;;;;;;4982654;28;19934;-62
2023/05/10 07:41:57;;;;;;;;;;;15.60;85.50;;;;;;4982783;28;20421;-67
2023/05/10 07:44:26;;;;;;;;;;;15.60;85.70;;;;;;4981731;28;19980;-67
2023/05/10 07:46:53;;;;;;;;;;;15.60;85.30;;;;;;4984389;28;19932;-67
2023/05/10 07:49:20;;;;;;;;;;;15.60;85.50;;;;;;4985096;28;19930;-67
2023/05/10 07:51:46;;;;;;;;;;;15.60;85.50;;;;;;4985062;28;19930;-67
2023/05/10 07:54:13;;;;;;;;;;;15.50;85.50;;;;;;4985215;28;19930;-67
2023/05/10 07:56:45;;;;;;;;;;;15.60;85.50;;;;;;4985454;28;19957;-64
2023/05/10 07:59:15;;;;;;;;;;;15.60;85.40;;;;;;4982995;28;20028;-64
2023/05/10 08:01:43;;;;;;;;;;;15.60;85.20;;;;;;4984033;28;20469;-63
2023/05/10 08:04:11;;;;;;;;;;;15.70;85.00;;;;;;4981091;28;19930;-63
2023/05/10 08:06:38;;;;;;;;;;;15.70;84.90;;;;;;4982939;28;19968;-65
2023/05/10 08:09:04;;;;;;;;;;;15.80;85.00;;;;;;4984371;28;19926;-63
2023/05/10 08:11:31;;;;;;;;;;;15.70;85.30;;;;;;4982815;28;19937;-64
2023/05/10 08:13:58;;;;;;;;;;;15.70;85.10;;;;;;4982247;28;19937;-64
2023/05/10 08:16:25;;;;;;;;;;;15.80;84.90;;;;;;4981094;28;19930;-64
2023/05/10 08:18:54;;;;;;;;;;;15.80;84.90;;;;;;4980752;28;19936;-64
2023/05/10 08:21:21;;;;;;;;;;;15.80;84.80;;;;;;4979019;28;19926;-77
2023/05/10 08:23:48;;;;;;;;;;;15.80;84.80;;;;;;4985801;28;19957;-77
2023/05/10 08:26:15;;;;;;;;;;;15.80;84.80;;;;;;4985457;28;21916;-65
2023/05/10 08:28:42;;;;;;;;;;;15.70;84.80;;;;;;4985455;28;19925;-65
2023/05/10 08:31:09;;;;;;;;;;;15.70;85.30;;;;;;4984595;28;19981;-68
2023/05/10 08:33:35;;;;;;;;;;;15.70;85.20;;;;;;4981798;28;19926;-69
2023/05/10 08:36:04;;;;;;;;;;;15.70;85.30;;;;;;4971980;28;19941;-68
2023/05/10 08:38:30;;;;;;;;;;;15.80;85.30;;;;;;4973068;28;20393;-68
2023/05/10 08:40:58;;;;;;;;;;;15.90;84.80;;;;;;4967871;28;19953;-65
2023/05/10 08:43:27;;;;;;;;;;;16.00;85.30;;;;;;4969321;28;19926;-65
2023/05/10 08:45:55;;;;;;;;;;;16.00;84.70;;;;;;4964052;28;19941;-67
2023/05/10 08:48:22;;;;;;;;;;;16.00;85.00;;;;;;4966429;28;20292;-64
2023/05/10 08:50:50;;;;;;;;;;;15.90;85.30;;;;;;4973393;28;20017;-65
2023/05/10 08:53:18;;;;;;;;;;;16.00;84.90;;;;;;4984729;28;19937;-64
2023/05/10 08:55:45;;;;;;;;;;;16.00;84.90;;;;;;4981989;28;20404;-65
2023/05/10 08:58:11;;;;;;;;;;;16.00;85.00;;;;;;4984455;28;20638;-64
2023/05/10 09:00:38;;;;;;;;;;;16.10;84.70;;;;;;4978012;28;19926;-66
2023/05/10 09:03:05;;;;;;;;;;;16.00;84.50;;;;;;4980672;28;20088;-64
2023/05/10 09:05:32;;;;;;;;;;;16.00;84.70;;;;;;4983217;28;19930;-67
2023/05/10 09:08:00;;;;;;;;;;;15.90;84.90;;;;;;4982220;28;19933;-66
2023/05/10 09:10:28;;;;;;;;;;;15.90;84.60;;;;;;4982840;28;19925;-63
2023/05/10 09:12:56;;;;;;;;;;;15.90;84.80;;;;;;4980721;28;19934;-62
2023/05/10 09:15:23;;;;;;;;;;;15.90;84.90;;;;;;4981536;28;19986;-73
2023/05/10 09:17:50;;;;;;;;;;;16.10;84.60;;;;;;4980352;28;19930;-73
2023/05/10 09:20:18;;;;;;;;;;;16.10;84.80;;;;;;4977972;28;19933;-62
2023/05/10 09:22:44;;;;;;;;;;;16.10;84.70;;;;;;4983511;28;19926;-62
2023/05/10 09:25:12;;;;;;;;;;;16.30;84.70;;;;;;4981129;28;20471;-73
2023/05/10 09:27:41;;;;;;;;;;;16.40;84.70;;;;;;4977654;28;20024;-74
2023/05/10 09:30:08;;;;;;;;;;;16.50;84.70;;;;;;4976724;28;19929;-74
2023/05/10 09:32:39;;;;;;;;;;;16.60;84.90;;;;;;4982468;28;19980;-74
2023/05/10 09:35:09;;;;;;;;;;;16.60;84.70;;;;;;4983147;28;20301;-73
2023/05/10 09:37:36;;;;;;;;;;;16.70;84.40;;;;;;4982884;28;19930;-73
2023/05/10 09:40:05;;;;;;;;;;;16.70;84.60;;;;;;4980329;28;19949;-74
2023/05/10 09:42:32;;;;;;;;;;;16.70;84.70;;;;;;4980932;28;19949;-75
2023/05/10 09:45:02;;;;;;;;;;;16.70;84.10;;;;;;4980095;28;19926;-74
2023/05/10 09:47:29;;;;;;;;;;;16.70;83.90;;;;;;4981527;28;19932;-74
2023/05/10 09:49:58;;;;;;;;;;;16.80;83.20;;;;;;4980436;28;19984;-74
2023/05/10 09:52:24;;;;;;;;;;;16.80;83.60;;;;;;4982503;28;19934;-65
2023/05/10 09:54:53;;;;;;;;;;;16.60;83.50;;;;;;4981722;28;19934;-66
2023/05/10 09:57:21;;;;;;;;;;;16.60;83.30;;;;;;4981266;28;19934;-67
2023/05/10 09:59:49;;;;;;;;;;;16.60;83.30;;;;;;4980472;28;20060;-68
2023/05/10 10:02:17;;;;;;;;;;;16.60;83.30;;;;;;4977019;28;19926;-77
2023/05/10 10:04:44;;;;;;;;;;;16.60;83.40;;;;;;4983617;28;20052;-77
2023/05/10 10:07:11;;;;;;;;;;;16.80;82.90;;;;;;4979120;28;19930;-67
2023/05/10 10:09:37;;;;;;;;;;;16.80;82.60;;;;;;4980898;28;20021;-67
2023/05/10 10:12:04;;;;;;;;;;;16.80;82.30;;;;;;4976827;28;19933;-67
2023/05/10 10:14:31;;;;;;;;;;;16.80;82.30;;;;;;4978761;28;20033;-66
2023/05/10 10:17:01;;;;;;;;;;;17.00;82.10;;;;;;4978621;28;19981;-66
2023/05/10 10:19:29;;;;;;;;;;;17.10;81.80;;;;;;4978908;28;19937;-67
2023/05/10 10:21:55;;;;;;;;;;;17.20;81.50;;;;;;4981139;28;20448;-63
2023/05/10 10:24:22;;;;;;;;;;;17.30;80.90;;;;;;4981141;28;19930;-62
2023/05/10 10:26:49;;;;;;;;;;;17.40;80.70;;;;;;4977004;28;19933;-62
2023/05/10 10:29:22;;;;;;;;;;;17.60;80.50;;;;;;4981303;28;19979;-60
2023/05/10 10:31:52;;;;;;;;;;;17.60;80.60;;;;;;4981197;28;19936;-63
2023/05/10 10:34:25;;;;;;;;;;;17.70;80.40;;;;;;4977570;28;20308;-66
2023/05/10 10:36:54;;;;;;;;;;;17.70;80.10;;;;;;4979393;28;19937;-73
2023/05/10 10:39:21;;;;;;;;;;;17.80;80.00;;;;;;4977098;28;19976;-74
2023/05/10 10:41:51;;;;;;;;;;;18.00;79.20;;;;;;4981839;28;19936;-67
2023/05/10 10:44:25;;;;;;;;;;;18.10;78.50;;;;;;4980057;28;20013;-68
2023/05/10 10:47:22;;;;;;;;;;;18.10;78.60;;;;;;4980408;28;19934;-62
2023/05/10 10:49:51;;;;;;;;;;;18.10;78.50;;;;;;4966716;28;19970;-62
2023/05/10 10:52:28;;;;;;;;;;;17.80;77.90;;;;;;4981628;28;19934;-76
2023/05/10 10:54:59;;;;;;;;;;;17.80;78.30;;;;;;4981273;28;20020;-76
2023/05/10 10:57:26;;;;;;;;;;;17.60;78.10;;;;;;4982673;28;19929;-66
2023/05/10 11:00:13;;;;;;;;;;;17.50;78.60;;;;;;4981754;28;19934;-67
2023/05/10 11:02:48;;;;;;;;;;;17.40;79.00;;;;;;4982323;28;19950;-76
2023/05/10 11:05:45;;;;;;;;;;;17.40;79.40;;;;;;4983243;28;19941;-64
2023/05/10 11:08:19;;;;;;;;;;;17.30;80.10;;;;;;4985970;28;20048;-64
2023/05/10 11:11:07;;;;;;;;;;;17.20;81.20;;;;;;4983994;28;19925;-65
2023/05/10 11:13:35;;;;;;;;;;;17.30;81.60;;;;;;4978122;28;19938;-66
2023/05/10 11:16:16;;;;;;;;;;;17.20;81.90;;;;;;4981544;28;19941;-66
2023/05/10 11:18:54;;;;;;;;;;;17.20;82.00;;;;;;4983247;28;19934;-65
2023/05/10 11:21:21;;;;;;;;;;;17.20;82.30;;;;;;4976554;28;19932;-67
2023/05/10 11:23:49;;;;;;;;;;;17.20;81.50;;;;;;4983416;28;20343;-68
2023/05/10 11:26:16;;;;;;;;;;;17.10;81.10;;;;;;4988434;28;19945;-68
2023/05/10 11:28:43;;;;;;;;;;;17.10;81.20;;;;;;4985790;28;19926;-68
2023/05/10 11:31:10;;;;;;;;;;;17.00;80.80;;;;;;4985707;28;19965;-76
2023/05/10 11:33:43;;;;;;;;;;;16.90;80.90;;;;;;4986610;28;19941;-76
2023/05/10 11:36:12;;;;;;;;;;;16.80;81.10;;;;;;4987054;28;19933;-76
2023/05/10 11:38:39;;;;;;;;;;;16.70;81.10;;;;;;4982391;28;19934;-75
2023/05/10 11:41:06;;;;;;;;;;;16.70;81.60;;;;;;4983489;28;19926;-68
2023/05/10 11:43:33;;;;;;;;;;;16.60;81.80;;;;;;4988600;28;19933;-67
2023/05/10 11:46:00;;;;;;;;;;;16.70;81.30;;;;;;4976238;28;20032;-67
2023/05/10 11:48:26;;;;;;;;;;;16.60;81.60;;;;;;4985128;28;19969;-68
2023/05/10 11:50:56;;;;;;;;;;;16.60;82.00;;;;;;4985880;28;19929;-68
2023/05/10 11:53:26;;;;;;;;;;;16.60;81.90;;;;;;4983299;28;19930;-68
2023/05/10 11:55:53;;;;;;;;;;;16.60;81.90;;;;;;4984846;28;19934;-68
2023/05/10 11:58:21;;;;;;;;;;;16.60;82.40;;;;;;4963934;28;19938;-68
2023/05/10 12:00:48;;;;;;;;;;;16.60;82.10;;;;;;4983940;28;19925;-68
2023/05/10 12:03:15;;;;;;;;;;;16.60;82.00;;;;;;4985355;28;19926;-68
2023/05/10 12:05:42;;;;;;;;;;;16.70;81.90;;;;;;4983252;28;19934;-69
2023/05/10 12:08:12;;;;;;;;;;;16.60;82.60;;;;;;4984696;28;19932;-67
2023/05/10 12:10:40;;;;;;;;;;;16.50;83.10;;;;;;4981453;28;19969;-68
2023/05/10 12:13:11;;;;;;;;;;;16.60;83.30;;;;;;4976809;28;21969;-67
2023/05/10 12:15:38;;;;;;;;;;;16.60;83.60;;;;;;4983720;28;20314;-68
2023/05/10 12:18:05;;;;;;;;;;;16.60;83.70;;;;;;4978343;28;19937;-68
2023/05/10 12:20:31;;;;;;;;;;;16.70;83.10;;;;;;4980592;28;19937;-62
2023/05/10 12:23:01;;;;;;;;;;;16.70;83.10;;;;;;4978672;28;19926;-61
2023/05/10 12:25:31;;;;;;;;;;;16.70;83.70;;;;;;4982720;28;19930;-62
2023/05/10 12:28:00;;;;;;;;;;;16.70;83.80;;;;;;4983857;28;20275;-62
2023/05/10 12:30:28;;;;;;;;;;;16.80;82.60;;;;;;4980270;28;20547;-68
2023/05/10 12:32:55;;;;;;;;;;;16.80;82.60;;;;;;4983544;28;19930;-68
2023/05/10 12:35:23;;;;;;;;;;;16.60;82.40;;;;;;4981571;28;19933;-67
2023/05/10 12:37:51;;;;;;;;;;;16.70;82.10;;;;;;4981335;28;19926;-67
2023/05/10 12:40:18;;;;;;;;;;;16.60;82.30;;;;;;4984778;28;19940;-69
2023/05/10 12:42:45;;;;;;;;;;;16.60;82.90;;;;;;4978908;28;19936;-67
2023/05/10 12:45:13;;;;;;;;;;;16.70;82.80;;;;;;4966863;28;19930;-67
2023/05/10 12:47:40;;;;;;;;;;;16.60;83.40;;;;;;4980761;28;19937;-68
2023/05/10 12:50:07;;;;;;;;;;;16.70;83.50;;;;;;4976388;28;19960;-68
2023/05/10 12:52:34;;;;;;;;;;;16.70;83.80;;;;;;4980904;28;19930;-67
2023/05/10 12:55:01;;;;;;;;;;;16.70;84.00;;;;;;4981502;28;19964;-67
2023/05/10 12:57:28;;;;;;;;;;;16.70;83.00;;;;;;4982348;28;19937;-69
2023/05/10 12:59:55;;;;;;;;;;;16.70;82.80;;;;;;4984267;28;19925;-67
2023/05/10 13:02:23;;;;;;;;;;;16.70;83.00;;;;;;4983896;28;19933;-66
2023/05/10 13:04:50;;;;;;;;;;;16.70;83.30;;;;;;4984120;28;19937;-68
2023/05/10 13:07:17;;;;;;;;;;;16.60;83.50;;;;;;4981308;28;19926;-67
2023/05/10 13:09:43;;;;;;;;;;;16.70;83.30;;;;;;4984324;28;19932;-68
2023/05/10 13:12:10;;;;;;;;;;;16.70;83.40;;;;;;4983879;28;20384;-68
2023/05/10 13:14:37;;;;;;;;;;;16.60;83.30;;;;;;4982196;28;20324;-67
2023/05/10 13:17:04;;;;;;;;;;;16.70;83.10;;;;;;4983752;28;19930;-66
2023/05/10 13:19:32;;;;;;;;;;;16.70;82.90;;;;;;4983172;28;19933;-65
2023/05/10 13:21:59;;;;;;;;;;;16.70;82.60;;;;;;4983610;28;20009;-64
2023/05/10 13:24:26;;;;;;;;;;;16.70;82.40;;;;;;4982137;28;19926;-64
2023/05/10 13:26:52;;;;;;;;;;;16.70;81.80;;;;;;4986018;28;19940;-67
2023/05/10 13:29:25;;;;;;;;;;;16.70;81.70;;;;;;4986609;28;19929;-66
2023/05/10 13:31:52;;;;;;;;;;;16.70;81.60;;;;;;4983519;28;19984;-62
2023/05/10 13:34:20;;;;;;;;;;;16.60;81.30;;;;;;4983976;28;19947;-62
2023/05/10 13:36:48;;;;;;;;;;;16.60;81.30;;;;;;4981138;28;20005;-62
2023/05/10 13:39:15;;;;;;;;;;;16.50;81.70;;;;;;4983267;28;19926;-62
2023/05/10 13:41:42;;;;;;;;;;;16.40;82.10;;;;;;4984071;28;20153;-66
2023/05/10 13:44:09;;;;;;;;;;;16.40;82.70;;;;;;4984698;28;19932;-64
2023/05/10 13:46:35;;;;;;;;;;;16.40;83.30;;;;;;4982403;28;20681;-64
2023/05/10 13:49:02;;;;;;;;;;;16.50;83.10;;;;;;4976860;28;19934;-65
2023/05/10 13:51:31;;;;;;;;;;;16.40;83.10;;;;;;4980057;28;19930;-65
2023/05/10 13:53:59;;;;;;;;;;;16.50;83.50;;;;;;4982771;28;20364;-65
2023/05/10 13:56:26;;;;;;;;;;;16.40;83.80;;;;;;4982660;28;19953;-64
2023/05/10 13:58:53;;;;;;;;;;;16.50;83.70;;;;;;4982543;28;19937;-64
2023/05/10 14:01:19;;;;;;;;;;;16.50;83.80;;;;;;4984052;28;19930;-62
2023/05/10 14:03:46;;;;;;;;;;;16.50;84.10;;;;;;4978679;28;19925;-62
2023/05/10 14:06:13;;;;;;;;;;;16.60;84.20;;;;;;4978558;28;19930;-63
2023/05/10 14:08:40;;;;;;;;;;;16.60;84.20;;;;;;4979361;28;19926;-62
2023/05/10 14:11:08;;;;;;;;;;;16.60;84.40;;;;;;4975329;28;19934;-62
2023/05/10 14:13:35;;;;;;;;;;;16.60;84.50;;;;;;4981710;28;19965;-61
2023/05/10 14:16:01;;;;;;;;;;;16.70;84.40;;;;;;4982469;28;19926;-66
2023/05/10 14:18:28;;;;;;;;;;;16.70;83.90;;;;;;4978196;28;20006;-65
2023/05/10 14:20:55;;;;;;;;;;;16.70;84.20;;;;;;4981153;28;19930;-66